sensor_id;sensor_type;location;lat;lon;timestamp;P1;durP1;ratioP1;P2;durP2;ratioP2
62071;SDS011;48031;48.542;13.232;2022-10-14T00:01:47;7.53;;;4.95;;
62071;SDS011;48031;48.542;13.232;2022-10-14T00:05:49;4.32;;;3.15;;
62071;SDS011;48031;48.542;13.232;2022-10-14T00:09:51;4.65;;;3.53;;
62071;SDS011;48031;48.542;13.232;2022-10-14T00:13:53;4.40;;;3.38;;
62071;SDS011;48031;48.542;13.232;2022-10-14T00:17:59;4.72;;;2.90;;
62071;SDS011;48031;48.542;13.232;2022-10-14T00:22:01;5.13;;;3.65;;
62071;SDS011;48031;48.542;13.232;2022-10-14T00:26:03;5.00;;;3.38;;
62071;SDS011;48031;48.542;13.232;2022-10-14T00:30:08;5.10;;;2.97;;
62071;SDS011;48031;48.542;13.232;2022-10-14T00:34:10;4.47;;;2.78;;
62071;SDS011;48031;48.542;13.232;2022-10-14T00:38:15;4.55;;;3.30;;
62071;SDS011;48031;48.542;13.232;2022-10-14T00:42:17;5.30;;;3.60;;
62071;SDS011;48031;48.542;13.232;2022-10-14T00:46:20;5.22;;;3.88;;
62071;SDS011;48031;48.542;13.232;2022-10-14T00:50:27;6.68;;;4.03;;
62071;SDS011;48031;48.542;13.232;2022-10-14T00:54:31;8.73;;;5.40;;
62071;SDS011;48031;48.542;13.232;2022-10-14T00:58:37;6.63;;;4.47;;
62071;SDS011;48031;48.542;13.232;2022-10-14T01:02:39;4.95;;;3.25;;
62071;SDS011;48031;48.542;13.232;2022-10-14T01:06:47;9.80;;;5.55;;
62071;SDS011;48031;48.542;13.232;2022-10-14T01:32:22;5.55;;;4.20;;
62071;SDS011;48031;48.542;13.232;2022-10-14T01:36:29;15.70;;;9.52;;
62071;SDS011;48031;48.542;13.232;2022-10-14T01:40:54;23.45;;;12.75;;
62071;SDS011;48031;48.542;13.232;2022-10-14T01:45:35;15.00;;;8.48;;
62071;SDS011;48031;48.542;13.232;2022-10-14T01:49:33;6.20;;;4.72;;
62071;SDS011;48031;48.542;13.232;2022-10-14T01:53:47;3.70;;;3.03;;
62071;SDS011;48031;48.542;13.232;2022-10-14T01:57:52;5.95;;;3.33;;
62071;SDS011;48031;48.542;13.232;2022-10-14T02:01:58;5.87;;;3.13;;
62071;SDS011;48031;48.542;13.232;2022-10-14T02:06:00;5.88;;;3.75;;
62071;SDS011;48031;48.542;13.232;2022-10-14T02:14:52;5.55;;;3.53;;
62071;SDS011;48031;48.542;13.232;2022-10-14T02:19:09;5.82;;;4.13;;
62071;SDS011;48031;48.542;13.232;2022-10-14T02:23:36;10.00;;;5.87;;
62071;SDS011;48031;48.542;13.232;2022-10-14T02:27:44;5.43;;;3.85;;
62071;SDS011;48031;48.542;13.232;2022-10-14T02:31:49;13.90;;;7.95;;
62071;SDS011;48031;48.542;13.232;2022-10-14T02:35:52;8.05;;;5.82;;
62071;SDS011;48031;48.542;13.232;2022-10-14T02:40:04;9.73;;;5.57;;
62071;SDS011;48031;48.542;13.232;2022-10-14T02:44:11;3.40;;;2.97;;
62071;SDS011;48031;48.542;13.232;2022-10-14T02:48:12;6.68;;;3.78;;
62071;SDS011;48031;48.542;13.232;2022-10-14T02:52:14;2.92;;;2.65;;
62071;SDS011;48031;48.542;13.232;2022-10-14T02:56:16;11.13;;;5.88;;
62071;SDS011;48031;48.542;13.232;2022-10-14T03:00:19;11.75;;;7.45;;
62071;SDS011;48031;48.542;13.232;2022-10-14T03:04:21;14.00;;;9.05;;
62071;SDS011;48031;48.542;13.232;2022-10-14T03:08:25;18.67;;;11.43;;
62071;SDS011;48031;48.542;13.232;2022-10-14T03:12:29;18.80;;;10.85;;
62071;SDS011;48031;48.542;13.232;2022-10-14T03:16:31;15.40;;;9.38;;
62071;SDS011;48031;48.542;13.232;2022-10-14T03:20:33;12.80;;;8.43;;
62071;SDS011;48031;48.542;13.232;2022-10-14T03:24:37;13.77;;;8.30;;
62071;SDS011;48031;48.542;13.232;2022-10-14T03:29:08;11.15;;;6.85;;
62071;SDS011;48031;48.542;13.232;2022-10-14T03:33:33;8.55;;;5.35;;
62071;SDS011;48031;48.542;13.232;2022-10-14T03:37:43;10.68;;;6.40;;
62071;SDS011;48031;48.542;13.232;2022-10-14T03:41:45;11.48;;;6.80;;
62071;SDS011;48031;48.542;13.232;2022-10-14T03:45:51;10.85;;;5.72;;
62071;SDS011;48031;48.542;13.232;2022-10-14T03:49:55;8.65;;;5.40;;
62071;SDS011;48031;48.542;13.232;2022-10-14T03:54:11;21.95;;;9.65;;
62071;SDS011;48031;48.542;13.232;2022-10-14T03:58:13;10.25;;;6.82;;
62071;SDS011;48031;48.542;13.232;2022-10-14T04:02:22;10.43;;;6.30;;
62071;SDS011;48031;48.542;13.232;2022-10-14T04:10:35;14.85;;;8.10;;
62071;SDS011;48031;48.542;13.232;2022-10-14T04:14:37;8.15;;;5.68;;
62071;SDS011;48031;48.542;13.232;2022-10-14T04:18:39;9.23;;;5.82;;
62071;SDS011;48031;48.542;13.232;2022-10-14T04:22:43;10.02;;;6.35;;
62071;SDS011;48031;48.542;13.232;2022-10-14T04:26:49;16.70;;;10.27;;
62071;SDS011;48031;48.542;13.232;2022-10-14T04:31:15;13.98;;;8.95;;
62071;SDS011;48031;48.542;13.232;2022-10-14T04:35:26;16.38;;;8.98;;
62071;SDS011;48031;48.542;13.232;2022-10-14T04:39:30;13.95;;;8.18;;
62071;SDS011;48031;48.542;13.232;2022-10-14T04:43:32;14.82;;;8.77;;
62071;SDS011;48031;48.542;13.232;2022-10-14T04:47:46;15.48;;;9.13;;
62071;SDS011;48031;48.542;13.232;2022-10-14T04:51:52;10.38;;;6.68;;
62071;SDS011;48031;48.542;13.232;2022-10-14T04:56:03;14.52;;;9.32;;
62071;SDS011;48031;48.542;13.232;2022-10-14T05:00:10;12.00;;;8.10;;
62071;SDS011;48031;48.542;13.232;2022-10-14T05:04:21;11.00;;;6.28;;
62071;SDS011;48031;48.542;13.232;2022-10-14T05:08:25;11.00;;;6.38;;
62071;SDS011;48031;48.542;13.232;2022-10-14T05:12:30;13.35;;;8.30;;
62071;SDS011;48031;48.542;13.232;2022-10-14T05:16:35;16.90;;;9.75;;
62071;SDS011;48031;48.542;13.232;2022-10-14T05:20:38;9.23;;;5.63;;
62071;SDS011;48031;48.542;13.232;2022-10-14T05:24:40;11.55;;;6.15;;
62071;SDS011;48031;48.542;13.232;2022-10-14T05:28:42;11.95;;;5.55;;
62071;SDS011;48031;48.542;13.232;2022-10-14T05:32:44;16.70;;;9.25;;
62071;SDS011;48031;48.542;13.232;2022-10-14T05:36:47;14.13;;;8.07;;
62071;SDS011;48031;48.542;13.232;2022-10-14T05:40:50;8.73;;;5.20;;
62071;SDS011;48031;48.542;13.232;2022-10-14T05:44:56;11.70;;;6.97;;
62071;SDS011;48031;48.542;13.232;2022-10-14T05:48:59;15.05;;;8.52;;
62071;SDS011;48031;48.542;13.232;2022-10-14T05:53:03;15.43;;;8.57;;
62071;SDS011;48031;48.542;13.232;2022-10-14T05:57:12;10.27;;;5.97;;
62071;SDS011;48031;48.542;13.232;2022-10-14T06:01:14;11.52;;;7.03;;
62071;SDS011;48031;48.542;13.232;2022-10-14T06:05:16;12.10;;;6.30;;
62071;SDS011;48031;48.542;13.232;2022-10-14T06:09:18;9.90;;;5.85;;
62071;SDS011;48031;48.542;13.232;2022-10-14T06:13:20;8.30;;;5.43;;
62071;SDS011;48031;48.542;13.232;2022-10-14T06:17:24;10.15;;;6.63;;
62071;SDS011;48031;48.542;13.232;2022-10-14T06:21:26;9.07;;;5.60;;
62071;SDS011;48031;48.542;13.232;2022-10-14T06:25:29;11.38;;;7.03;;
62071;SDS011;48031;48.542;13.232;2022-10-14T06:29:31;10.40;;;6.95;;
62071;SDS011;48031;48.542;13.232;2022-10-14T06:33:38;8.68;;;5.15;;
62071;SDS011;48031;48.542;13.232;2022-10-14T06:37:40;11.15;;;6.30;;
62071;SDS011;48031;48.542;13.232;2022-10-14T06:41:46;13.43;;;7.82;;
62071;SDS011;48031;48.542;13.232;2022-10-14T06:45:55;13.98;;;6.43;;
62071;SDS011;48031;48.542;13.232;2022-10-14T06:49:57;10.05;;;5.93;;
62071;SDS011;48031;48.542;13.232;2022-10-14T06:53:59;12.45;;;7.55;;
62071;SDS011;48031;48.542;13.232;2022-10-14T06:58:00;14.10;;;6.72;;
62071;SDS011;48031;48.542;13.232;2022-10-14T07:02:02;20.15;;;10.60;;
62071;SDS011;48031;48.542;13.232;2022-10-14T07:06:04;19.40;;;11.02;;
62071;SDS011;48031;48.542;13.232;2022-10-14T07:10:08;22.30;;;11.88;;
62071;SDS011;48031;48.542;13.232;2022-10-14T07:14:09;13.38;;;8.13;;
62071;SDS011;48031;48.542;13.232;2022-10-14T07:18:12;18.00;;;10.25;;
62071;SDS011;48031;48.542;13.232;2022-10-14T07:22:14;9.90;;;5.57;;
62071;SDS011;48031;48.542;13.232;2022-10-14T07:26:17;15.55;;;9.32;;
62071;SDS011;48031;48.542;13.232;2022-10-14T07:30:19;18.55;;;10.07;;
62071;SDS011;48031;48.542;13.232;2022-10-14T07:34:21;18.95;;;10.25;;
62071;SDS011;48031;48.542;13.232;2022-10-14T07:38:23;16.88;;;9.15;;
62071;SDS011;48031;48.542;13.232;2022-10-14T07:42:25;16.00;;;9.68;;
62071;SDS011;48031;48.542;13.232;2022-10-14T07:46:27;13.93;;;8.10;;
62071;SDS011;48031;48.542;13.232;2022-10-14T07:50:30;12.48;;;7.50;;
62071;SDS011;48031;48.542;13.232;2022-10-14T07:54:32;13.27;;;7.72;;
62071;SDS011;48031;48.542;13.232;2022-10-14T07:58:33;12.82;;;7.55;;
62071;SDS011;48031;48.542;13.232;2022-10-14T08:02:35;9.05;;;5.90;;
62071;SDS011;48031;48.542;13.232;2022-10-14T08:06:37;13.77;;;7.40;;
62071;SDS011;48031;48.542;13.232;2022-10-14T08:10:39;11.98;;;7.47;;
62071;SDS011;48031;48.542;13.232;2022-10-14T08:14:41;13.65;;;7.45;;
62071;SDS011;48031;48.542;13.232;2022-10-14T08:18:43;13.23;;;7.40;;
62071;SDS011;48031;48.542;13.232;2022-10-14T08:22:46;13.48;;;7.40;;
62071;SDS011;48031;48.542;13.232;2022-10-14T08:26:48;15.50;;;9.18;;
62071;SDS011;48031;48.542;13.232;2022-10-14T08:30:58;14.98;;;9.40;;
62071;SDS011;48031;48.542;13.232;2022-10-14T08:35:00;14.88;;;9.73;;
62071;SDS011;48031;48.542;13.232;2022-10-14T08:39:02;10.90;;;6.85;;
62071;SDS011;48031;48.542;13.232;2022-10-14T08:43:17;11.45;;;7.18;;
62071;SDS011;48031;48.542;13.232;2022-10-14T08:47:24;9.95;;;6.60;;
62071;SDS011;48031;48.542;13.232;2022-10-14T08:51:36;11.05;;;6.85;;
62071;SDS011;48031;48.542;13.232;2022-10-14T08:55:45;8.82;;;5.97;;
62071;SDS011;48031;48.542;13.232;2022-10-14T08:59:50;7.28;;;5.38;;
62071;SDS011;48031;48.542;13.232;2022-10-14T09:03:53;7.18;;;4.90;;
62071;SDS011;48031;48.542;13.232;2022-10-14T09:07:58;7.53;;;5.35;;
62071;SDS011;48031;48.542;13.232;2022-10-14T09:12:05;10.15;;;6.72;;
62071;SDS011;48031;48.542;13.232;2022-10-14T09:16:16;6.50;;;4.95;;
62071;SDS011;48031;48.542;13.232;2022-10-14T09:20:21;7.13;;;5.32;;
62071;SDS011;48031;48.542;13.232;2022-10-14T09:24:26;8.15;;;5.38;;
62071;SDS011;48031;48.542;13.232;2022-10-14T09:28:32;7.53;;;5.15;;
62071;SDS011;48031;48.542;13.232;2022-10-14T09:32:39;9.15;;;4.85;;
62071;SDS011;48031;48.542;13.232;2022-10-14T09:36:42;8.05;;;5.90;;
62071;SDS011;48031;48.542;13.232;2022-10-14T09:40:45;5.57;;;4.05;;
62071;SDS011;48031;48.542;13.232;2022-10-14T09:45:09;6.68;;;4.40;;
62071;SDS011;48031;48.542;13.232;2022-10-14T09:49:28;7.22;;;5.75;;
62071;SDS011;48031;48.542;13.232;2022-10-14T09:53:39;5.30;;;4.22;;
62071;SDS011;48031;48.542;13.232;2022-10-14T09:57:47;6.82;;;4.10;;
62071;SDS011;48031;48.542;13.232;2022-10-14T10:02:09;5.78;;;4.10;;
62071;SDS011;48031;48.542;13.232;2022-10-14T10:06:23;6.03;;;4.43;;
62071;SDS011;48031;48.542;13.232;2022-10-14T10:10:27;7.60;;;5.15;;
62071;SDS011;48031;48.542;13.232;2022-10-14T10:14:32;8.13;;;5.22;;
62071;SDS011;48031;48.542;13.232;2022-10-14T10:18:34;3.85;;;3.30;;
62071;SDS011;48031;48.542;13.232;2022-10-14T10:22:36;6.65;;;4.40;;
62071;SDS011;48031;48.542;13.232;2022-10-14T10:26:39;9.98;;;6.93;;
62071;SDS011;48031;48.542;13.232;2022-10-14T10:47:50;5.30;;;4.28;;
62071;SDS011;48031;48.542;13.232;2022-10-14T11:00:26;3.92;;;3.25;;
62071;SDS011;48031;48.542;13.232;2022-10-14T11:04:37;3.00;;;2.70;;
62071;SDS011;48031;48.542;13.232;2022-10-14T11:08:56;3.42;;;2.70;;
62071;SDS011;48031;48.542;13.232;2022-10-14T11:13:29;3.92;;;2.83;;
62071;SDS011;48031;48.542;13.232;2022-10-14T11:22:13;2.97;;;2.30;;
62071;SDS011;48031;48.542;13.232;2022-10-14T11:26:40;1.88;;;1.77;;
62071;SDS011;48031;48.542;13.232;2022-10-14T11:31:00;2.08;;;1.75;;
62071;SDS011;48031;48.542;13.232;2022-10-14T11:39:49;1.65;;;1.55;;
62071;SDS011;48031;48.542;13.232;2022-10-14T11:44:05;2.08;;;1.88;;
62071;SDS011;48031;48.542;13.232;2022-10-14T11:53:19;1.80;;;1.52;;
62071;SDS011;48031;48.542;13.232;2022-10-14T12:01:15;1.80;;;1.70;;
62071;SDS011;48031;48.542;13.232;2022-10-14T12:05:38;1.95;;;1.77;;
62071;SDS011;48031;48.542;13.232;2022-10-14T12:09:41;2.55;;;2.10;;
62071;SDS011;48031;48.542;13.232;2022-10-14T12:13:50;1.83;;;1.67;;
62071;SDS011;48031;48.542;13.232;2022-10-14T12:18:00;2.40;;;2.20;;
62071;SDS011;48031;48.542;13.232;2022-10-14T12:34:37;2.17;;;1.98;;
62071;SDS011;48031;48.542;13.232;2022-10-14T12:38:40;2.88;;;1.92;;
62071;SDS011;48031;48.542;13.232;2022-10-14T12:46:47;2.58;;;1.90;;
62071;SDS011;48031;48.542;13.232;2022-10-14T12:51:11;1.83;;;1.73;;
62071;SDS011;48031;48.542;13.232;2022-10-14T12:55:17;2.15;;;1.95;;
62071;SDS011;48031;48.542;13.232;2022-10-14T12:59:23;2.10;;;1.90;;
62071;SDS011;48031;48.542;13.232;2022-10-14T13:03:31;1.95;;;1.60;;
62071;SDS011;48031;48.542;13.232;2022-10-14T13:07:40;2.22;;;1.63;;
62071;SDS011;48031;48.542;13.232;2022-10-14T13:16:06;2.97;;;1.80;;
62071;SDS011;48031;48.542;13.232;2022-10-14T13:24:38;3.08;;;1.38;;
62071;SDS011;48031;48.542;13.232;2022-10-14T13:28:54;2.25;;;1.65;;
62071;SDS011;48031;48.542;13.232;2022-10-14T13:33:31;1.30;;;1.17;;
62071;SDS011;48031;48.542;13.232;2022-10-14T13:37:41;2.17;;;1.40;;
62071;SDS011;48031;48.542;13.232;2022-10-14T13:41:46;1.33;;;1.17;;
62071;SDS011;48031;48.542;13.232;2022-10-14T13:45:51;1.63;;;1.50;;
62071;SDS011;48031;48.542;13.232;2022-10-14T13:49:55;1.83;;;1.73;;
62071;SDS011;48031;48.542;13.232;2022-10-14T13:54:21;1.70;;;1.40;;
62071;SDS011;48031;48.542;13.232;2022-10-14T13:58:24;2.50;;;2.05;;
62071;SDS011;48031;48.542;13.232;2022-10-14T14:02:26;2.15;;;1.80;;
62071;SDS011;48031;48.542;13.232;2022-10-14T14:06:27;1.70;;;1.60;;
62071;SDS011;48031;48.542;13.232;2022-10-14T14:10:55;2.33;;;1.65;;
62071;SDS011;48031;48.542;13.232;2022-10-14T14:15:23;2.20;;;1.77;;
62071;SDS011;48031;48.542;13.232;2022-10-14T14:19:27;1.77;;;1.67;;
62071;SDS011;48031;48.542;13.232;2022-10-14T14:23:30;1.75;;;1.60;;
62071;SDS011;48031;48.542;13.232;2022-10-14T14:27:32;1.70;;;1.60;;
62071;SDS011;48031;48.542;13.232;2022-10-14T14:31:34;1.67;;;1.58;;
62071;SDS011;48031;48.542;13.232;2022-10-14T14:35:59;1.95;;;1.50;;
62071;SDS011;48031;48.542;13.232;2022-10-14T14:44:07;1.83;;;1.60;;
62071;SDS011;48031;48.542;13.232;2022-10-14T14:48:25;2.90;;;2.20;;
62071;SDS011;48031;48.542;13.232;2022-10-14T14:52:29;3.35;;;1.80;;
62071;SDS011;48031;48.542;13.232;2022-10-14T14:56:38;3.42;;;2.10;;
62071;SDS011;48031;48.542;13.232;2022-10-14T15:00:46;2.00;;;1.80;;
62071;SDS011;48031;48.542;13.232;2022-10-14T15:05:00;1.70;;;1.60;;
62071;SDS011;48031;48.542;13.232;2022-10-14T15:09:12;3.30;;;1.70;;
62071;SDS011;48031;48.542;13.232;2022-10-14T15:17:37;3.35;;;2.30;;
62071;SDS011;48031;48.542;13.232;2022-10-14T15:21:45;7.32;;;3.83;;
62071;SDS011;48031;48.542;13.232;2022-10-14T15:30:47;3.08;;;2.50;;
62071;SDS011;48031;48.542;13.232;2022-10-14T15:34:55;2.83;;;2.35;;
62071;SDS011;48031;48.542;13.232;2022-10-14T15:38:59;4.03;;;2.67;;
62071;SDS011;48031;48.542;13.232;2022-10-14T15:43:04;4.05;;;2.90;;
62071;SDS011;48031;48.542;13.232;2022-10-14T15:47:20;3.47;;;3.00;;
62071;SDS011;48031;48.542;13.232;2022-10-14T15:51:23;3.15;;;2.65;;
62071;SDS011;48031;48.542;13.232;2022-10-14T15:55:30;2.90;;;2.60;;
62071;SDS011;48031;48.542;13.232;2022-10-14T15:59:37;4.47;;;2.20;;
62071;SDS011;48031;48.542;13.232;2022-10-14T16:03:39;4.55;;;3.20;;
62071;SDS011;48031;48.542;13.232;2022-10-14T16:07:44;4.97;;;3.72;;
62071;SDS011;48031;48.542;13.232;2022-10-14T16:11:46;4.63;;;3.28;;
62071;SDS011;48031;48.542;13.232;2022-10-14T16:15:53;4.18;;;3.47;;
62071;SDS011;48031;48.542;13.232;2022-10-14T16:19:58;3.00;;;2.38;;
62071;SDS011;48031;48.542;13.232;2022-10-14T16:24:00;3.17;;;2.40;;
62071;SDS011;48031;48.542;13.232;2022-10-14T16:28:04;3.53;;;2.70;;
62071;SDS011;48031;48.542;13.232;2022-10-14T16:36:13;8.57;;;4.97;;
62071;SDS011;48031;48.542;13.232;2022-10-14T16:40:15;4.05;;;2.72;;
62071;SDS011;48031;48.542;13.232;2022-10-14T16:44:17;2.40;;;2.03;;
62071;SDS011;48031;48.542;13.232;2022-10-14T16:48:25;4.00;;;2.92;;
62071;SDS011;48031;48.542;13.232;2022-10-14T16:52:28;5.35;;;2.50;;
62071;SDS011;48031;48.542;13.232;2022-10-14T16:56:50;2.65;;;1.98;;
62071;SDS011;48031;48.542;13.232;2022-10-14T17:00:54;3.90;;;3.00;;
62071;SDS011;48031;48.542;13.232;2022-10-14T17:04:56;4.15;;;3.00;;
62071;SDS011;48031;48.542;13.232;2022-10-14T17:08:58;4.25;;;3.08;;
62071;SDS011;48031;48.542;13.232;2022-10-14T17:13:00;2.75;;;2.30;;
62071;SDS011;48031;48.542;13.232;2022-10-14T17:17:03;4.22;;;3.00;;
62071;SDS011;48031;48.542;13.232;2022-10-14T17:21:06;3.40;;;2.65;;
62071;SDS011;48031;48.542;13.232;2022-10-14T17:25:10;4.70;;;3.13;;
62071;SDS011;48031;48.542;13.232;2022-10-14T17:29:12;4.32;;;2.80;;
62071;SDS011;48031;48.542;13.232;2022-10-14T17:33:15;4.82;;;3.05;;
62071;SDS011;48031;48.542;13.232;2022-10-14T17:37:18;3.97;;;2.92;;
62071;SDS011;48031;48.542;13.232;2022-10-14T17:41:20;4.45;;;3.70;;
62071;SDS011;48031;48.542;13.232;2022-10-14T17:45:25;5.03;;;3.40;;
62071;SDS011;48031;48.542;13.232;2022-10-14T17:49:28;4.82;;;3.67;;
62071;SDS011;48031;48.542;13.232;2022-10-14T17:53:31;5.78;;;3.80;;
62071;SDS011;48031;48.542;13.232;2022-10-14T17:57:33;7.35;;;4.00;;
62071;SDS011;48031;48.542;13.232;2022-10-14T18:01:35;6.00;;;3.33;;
62071;SDS011;48031;48.542;13.232;2022-10-14T18:05:50;6.72;;;4.68;;
62071;SDS011;48031;48.542;13.232;2022-10-14T18:09:53;8.40;;;5.10;;
62071;SDS011;48031;48.542;13.232;2022-10-14T18:13:56;5.35;;;4.07;;
62071;SDS011;48031;48.542;13.232;2022-10-14T18:18:02;6.70;;;3.85;;
62071;SDS011;48031;48.542;13.232;2022-10-14T18:22:03;7.13;;;3.83;;
62071;SDS011;48031;48.542;13.232;2022-10-14T18:26:11;5.07;;;3.55;;
62071;SDS011;48031;48.542;13.232;2022-10-14T18:30:15;5.45;;;3.75;;
62071;SDS011;48031;48.542;13.232;2022-10-14T18:34:17;5.25;;;4.03;;
62071;SDS011;48031;48.542;13.232;2022-10-14T18:38:19;5.15;;;3.10;;
62071;SDS011;48031;48.542;13.232;2022-10-14T18:42:21;4.28;;;3.15;;
62071;SDS011;48031;48.542;13.232;2022-10-14T18:46:30;5.65;;;3.40;;
62071;SDS011;48031;48.542;13.232;2022-10-14T18:50:34;6.60;;;4.93;;
62071;SDS011;48031;48.542;13.232;2022-10-14T18:54:37;6.28;;;4.68;;
62071;SDS011;48031;48.542;13.232;2022-10-14T18:58:38;7.90;;;4.75;;
62071;SDS011;48031;48.542;13.232;2022-10-14T19:02:40;6.60;;;4.30;;
62071;SDS011;48031;48.542;13.232;2022-10-14T19:06:42;5.05;;;3.80;;
62071;SDS011;48031;48.542;13.232;2022-10-14T19:10:49;6.00;;;4.47;;
62071;SDS011;48031;48.542;13.232;2022-10-14T19:14:51;5.80;;;4.30;;
62071;SDS011;48031;48.542;13.232;2022-10-14T19:18:53;4.15;;;3.38;;
62071;SDS011;48031;48.542;13.232;2022-10-14T19:22:56;4.95;;;3.75;;
62071;SDS011;48031;48.542;13.232;2022-10-14T19:26:58;6.35;;;4.88;;
62071;SDS011;48031;48.542;13.232;2022-10-14T19:35:58;6.90;;;5.05;;
62071;SDS011;48031;48.542;13.232;2022-10-14T19:40:00;4.63;;;3.47;;
62071;SDS011;48031;48.542;13.232;2022-10-14T19:44:02;6.07;;;4.57;;
62071;SDS011;48031;48.542;13.232;2022-10-14T19:48:06;5.80;;;4.60;;
62071;SDS011;48031;48.542;13.232;2022-10-14T19:52:08;7.97;;;5.00;;
62071;SDS011;48031;48.542;13.232;2022-10-14T19:56:11;7.43;;;5.30;;
62071;SDS011;48031;48.542;13.232;2022-10-14T20:00:13;6.40;;;4.20;;
62071;SDS011;48031;48.542;13.232;2022-10-14T20:04:15;5.03;;;3.92;;
62071;SDS011;48031;48.542;13.232;2022-10-14T20:08:23;9.82;;;5.30;;
62071;SDS011;48031;48.542;13.232;2022-10-14T20:12:24;7.47;;;5.90;;
62071;SDS011;48031;48.542;13.232;2022-10-14T20:16:26;9.82;;;7.32;;
62071;SDS011;48031;48.542;13.232;2022-10-14T20:20:28;9.57;;;4.97;;
62071;SDS011;48031;48.542;13.232;2022-10-14T20:24:30;7.97;;;5.03;;
62071;SDS011;48031;48.542;13.232;2022-10-14T20:28:35;7.75;;;6.10;;
62071;SDS011;48031;48.542;13.232;2022-10-14T20:32:37;7.22;;;5.07;;
62071;SDS011;48031;48.542;13.232;2022-10-14T20:36:39;9.75;;;7.07;;
62071;SDS011;48031;48.542;13.232;2022-10-14T20:40:40;10.55;;;6.82;;
62071;SDS011;48031;48.542;13.232;2022-10-14T20:44:42;8.02;;;5.53;;
62071;SDS011;48031;48.542;13.232;2022-10-14T20:48:44;6.95;;;5.57;;
62071;SDS011;48031;48.542;13.232;2022-10-14T20:52:46;8.73;;;5.78;;
62071;SDS011;48031;48.542;13.232;2022-10-14T20:56:49;10.35;;;6.18;;
62071;SDS011;48031;48.542;13.232;2022-10-14T21:00:50;10.48;;;6.43;;
62071;SDS011;48031;48.542;13.232;2022-10-14T21:04:52;8.63;;;5.93;;
62071;SDS011;48031;48.542;13.232;2022-10-14T21:08:54;11.77;;;8.07;;
62071;SDS011;48031;48.542;13.232;2022-10-14T21:12:57;7.15;;;5.30;;
62071;SDS011;48031;48.542;13.232;2022-10-14T21:16:58;8.52;;;5.68;;
62071;SDS011;48031;48.542;13.232;2022-10-14T21:21:00;5.80;;;4.43;;
62071;SDS011;48031;48.542;13.232;2022-10-14T21:25:02;7.20;;;5.20;;
62071;SDS011;48031;48.542;13.232;2022-10-14T21:29:04;6.95;;;4.70;;
62071;SDS011;48031;48.542;13.232;2022-10-14T21:33:06;8.00;;;5.22;;
62071;SDS011;48031;48.542;13.232;2022-10-14T21:37:08;8.00;;;5.45;;
62071;SDS011;48031;48.542;13.232;2022-10-14T21:41:09;8.02;;;5.75;;
62071;SDS011;48031;48.542;13.232;2022-10-14T21:45:12;6.82;;;4.75;;
62071;SDS011;48031;48.542;13.232;2022-10-14T21:49:14;7.63;;;5.38;;
62071;SDS011;48031;48.542;13.232;2022-10-14T21:53:16;7.40;;;5.60;;
62071;SDS011;48031;48.542;13.232;2022-10-14T21:57:17;7.97;;;5.28;;
62071;SDS011;48031;48.542;13.232;2022-10-14T22:01:20;7.82;;;6.03;;
62071;SDS011;48031;48.542;13.232;2022-10-14T22:05:23;10.75;;;7.40;;
62071;SDS011;48031;48.542;13.232;2022-10-14T22:09:25;8.73;;;6.45;;
62071;SDS011;48031;48.542;13.232;2022-10-14T22:13:27;9.35;;;6.70;;
62071;SDS011;48031;48.542;13.232;2022-10-14T22:17:30;8.73;;;5.88;;
62071;SDS011;48031;48.542;13.232;2022-10-14T22:21:32;12.20;;;7.40;;
62071;SDS011;48031;48.542;13.232;2022-10-14T22:25:35;10.68;;;6.75;;
62071;SDS011;48031;48.542;13.232;2022-10-14T22:29:37;11.20;;;6.90;;
62071;SDS011;48031;48.542;13.232;2022-10-14T22:33:38;8.50;;;6.32;;
62071;SDS011;48031;48.542;13.232;2022-10-14T22:37:41;11.85;;;7.57;;
62071;SDS011;48031;48.542;13.232;2022-10-14T22:41:43;14.10;;;9.52;;
62071;SDS011;48031;48.542;13.232;2022-10-14T22:45:45;11.30;;;8.77;;
62071;SDS011;48031;48.542;13.232;2022-10-14T22:49:46;9.25;;;6.53;;
62071;SDS011;48031;48.542;13.232;2022-10-14T22:53:48;9.88;;;6.90;;
62071;SDS011;48031;48.542;13.232;2022-10-14T22:57:50;12.80;;;8.25;;
62071;SDS011;48031;48.542;13.232;2022-10-14T23:01:52;9.50;;;6.55;;
62071;SDS011;48031;48.542;13.232;2022-10-14T23:05:58;9.18;;;5.85;;
62071;SDS011;48031;48.542;13.232;2022-10-14T23:10:00;11.00;;;7.15;;
62071;SDS011;48031;48.542;13.232;2022-10-14T23:14:02;10.55;;;6.45;;
62071;SDS011;48031;48.542;13.232;2022-10-14T23:18:07;12.20;;;7.05;;
62071;SDS011;48031;48.542;13.232;2022-10-14T23:22:09;7.18;;;5.40;;
62071;SDS011;48031;48.542;13.232;2022-10-14T23:26:12;8.23;;;5.00;;
62071;SDS011;48031;48.542;13.232;2022-10-14T23:30:16;9.20;;;5.55;;
62071;SDS011;48031;48.542;13.232;2022-10-14T23:34:17;8.02;;;6.00;;
62071;SDS011;48031;48.542;13.232;2022-10-14T23:38:19;9.27;;;6.40;;
62071;SDS011;48031;48.542;13.232;2022-10-14T23:42:21;10.05;;;5.40;;
62071;SDS011;48031;48.542;13.232;2022-10-14T23:46:22;10.10;;;5.43;;
62071;SDS011;48031;48.542;13.232;2022-10-14T23:50:24;9.65;;;5.90;;
62071;SDS011;48031;48.542;13.232;2022-10-14T23:54:26;9.15;;;5.78;;
62071;SDS011;48031;48.542;13.232;2022-10-14T23:58:28;9.48;;;6.53;;
